sensor_id;sensor_type;location;lat;lon;timestamp;P1;durP1;ratioP1;P2;durP2;ratioP2
2868;SDS011;1442;47.448;8.582;2023-02-28T00:00:00;10.15;;;5.25;;
2868;SDS011;1442;47.448;8.582;2023-02-28T00:02:33;9.52;;;4.45;;
2868;SDS011;1442;47.448;8.582;2023-02-28T00:05:00;8.10;;;3.95;;
2868;SDS011;1442;47.448;8.582;2023-02-28T00:07:28;10.30;;;4.47;;
2868;SDS011;1442;47.448;8.582;2023-02-28T00:09:55;7.18;;;4.32;;
2868;SDS011;1442;47.448;8.582;2023-02-28T00:12:22;8.38;;;4.70;;
2868;SDS011;1442;47.448;8.582;2023-02-28T00:14:50;7.43;;;4.80;;
2868;SDS011;1442;47.448;8.582;2023-02-28T00:17:19;10.73;;;4.72;;
2868;SDS011;1442;47.448;8.582;2023-02-28T00:19:47;9.38;;;4.97;;
2868;SDS011;1442;47.448;8.582;2023-02-28T00:22:14;6.35;;;4.20;;
2868;SDS011;1442;47.448;8.582;2023-02-28T00:24:41;6.82;;;4.55;;
2868;SDS011;1442;47.448;8.582;2023-02-28T00:27:10;8.13;;;4.82;;
2868;SDS011;1442;47.448;8.582;2023-02-28T00:29:37;9.63;;;4.32;;
2868;SDS011;1442;47.448;8.582;2023-02-28T00:32:05;6.57;;;4.60;;
2868;SDS011;1442;47.448;8.582;2023-02-28T00:34:33;10.35;;;4.70;;
2868;SDS011;1442;47.448;8.582;2023-02-28T00:37:02;8.35;;;4.95;;
2868;SDS011;1442;47.448;8.582;2023-02-28T00:39:30;7.38;;;4.68;;
2868;SDS011;1442;47.448;8.582;2023-02-28T00:41:57;7.05;;;4.90;;
2868;SDS011;1442;47.448;8.582;2023-02-28T00:44:24;9.15;;;4.82;;
2868;SDS011;1442;47.448;8.582;2023-02-28T00:46:51;8.18;;;4.45;;
2868;SDS011;1442;47.448;8.582;2023-02-28T00:49:19;7.63;;;5.03;;
2868;SDS011;1442;47.448;8.582;2023-02-28T00:51:48;7.28;;;4.90;;
2868;SDS011;1442;47.448;8.582;2023-02-28T00:54:15;7.65;;;4.88;;
2868;SDS011;1442;47.448;8.582;2023-02-28T00:56:42;11.68;;;5.40;;
2868;SDS011;1442;47.448;8.582;2023-02-28T00:59:10;7.07;;;4.93;;
2868;SDS011;1442;47.448;8.582;2023-02-28T01:01:38;9.38;;;4.85;;
2868;SDS011;1442;47.448;8.582;2023-02-28T01:04:05;10.05;;;5.22;;
2868;SDS011;1442;47.448;8.582;2023-02-28T01:06:32;7.60;;;5.28;;
2868;SDS011;1442;47.448;8.582;2023-02-28T01:09:01;8.40;;;4.75;;
2868;SDS011;1442;47.448;8.582;2023-02-28T01:11:28;11.18;;;4.63;;
2868;SDS011;1442;47.448;8.582;2023-02-28T01:13:55;8.88;;;5.43;;
2868;SDS011;1442;47.448;8.582;2023-02-28T01:16:23;10.02;;;5.38;;
2868;SDS011;1442;47.448;8.582;2023-02-28T01:18:50;6.95;;;4.85;;
2868;SDS011;1442;47.448;8.582;2023-02-28T01:21:18;8.48;;;5.00;;
2868;SDS011;1442;47.448;8.582;2023-02-28T01:23:46;9.23;;;5.63;;
2868;SDS011;1442;47.448;8.582;2023-02-28T01:26:15;6.65;;;4.85;;
2868;SDS011;1442;47.448;8.582;2023-02-28T01:28:42;7.25;;;5.25;;
2868;SDS011;1442;47.448;8.582;2023-02-28T01:31:10;8.93;;;5.40;;
2868;SDS011;1442;47.448;8.582;2023-02-28T01:33:37;8.57;;;5.05;;
2868;SDS011;1442;47.448;8.582;2023-02-28T01:36:05;8.95;;;5.47;;
2868;SDS011;1442;47.448;8.582;2023-02-28T01:38:33;8.18;;;5.35;;
2868;SDS011;1442;47.448;8.582;2023-02-28T01:41:00;11.00;;;6.03;;
2868;SDS011;1442;47.448;8.582;2023-02-28T01:43:30;7.75;;;4.97;;
2868;SDS011;1442;47.448;8.582;2023-02-28T01:45:57;8.02;;;4.95;;
2868;SDS011;1442;47.448;8.582;2023-02-28T01:48:26;8.35;;;5.65;;
2868;SDS011;1442;47.448;8.582;2023-02-28T01:50:54;10.55;;;5.65;;
2868;SDS011;1442;47.448;8.582;2023-02-28T01:53:23;10.68;;;6.20;;
2868;SDS011;1442;47.448;8.582;2023-02-28T01:55:53;8.63;;;5.38;;
2868;SDS011;1442;47.448;8.582;2023-02-28T01:58:21;7.47;;;5.45;;
2868;SDS011;1442;47.448;8.582;2023-02-28T02:00:50;9.55;;;6.15;;
2868;SDS011;1442;47.448;8.582;2023-02-28T02:03:17;8.38;;;5.10;;
2868;SDS011;1442;47.448;8.582;2023-02-28T02:05:46;7.72;;;5.18;;
2868;SDS011;1442;47.448;8.582;2023-02-28T02:08:15;9.35;;;5.63;;
2868;SDS011;1442;47.448;8.582;2023-02-28T02:10:44;9.85;;;5.50;;
2868;SDS011;1442;47.448;8.582;2023-02-28T02:13:18;11.77;;;6.00;;
2868;SDS011;1442;47.448;8.582;2023-02-28T02:15:52;8.40;;;5.43;;
2868;SDS011;1442;47.448;8.582;2023-02-28T02:18:23;9.13;;;5.60;;
2868;SDS011;1442;47.448;8.582;2023-02-28T02:20:58;8.25;;;5.63;;
2868;SDS011;1442;47.448;8.582;2023-02-28T02:23:41;7.25;;;5.13;;
2868;SDS011;1442;47.448;8.582;2023-02-28T02:26:21;8.75;;;5.75;;
2868;SDS011;1442;47.448;8.582;2023-02-28T02:28:58;8.10;;;5.43;;
2868;SDS011;1442;47.448;8.582;2023-02-28T02:31:41;9.20;;;5.55;;
2868;SDS011;1442;47.448;8.582;2023-02-28T02:34:25;11.10;;;5.32;;
2868;SDS011;1442;47.448;8.582;2023-02-28T02:36:55;7.47;;;5.30;;
2868;SDS011;1442;47.448;8.582;2023-02-28T02:39:27;7.60;;;5.03;;
2868;SDS011;1442;47.448;8.582;2023-02-28T02:41:58;8.35;;;5.18;;
2868;SDS011;1442;47.448;8.582;2023-02-28T02:44:27;8.68;;;5.55;;
2868;SDS011;1442;47.448;8.582;2023-02-28T02:46:58;10.27;;;5.45;;
2868;SDS011;1442;47.448;8.582;2023-02-28T02:49:29;6.80;;;5.10;;
2868;SDS011;1442;47.448;8.582;2023-02-28T02:51:57;10.85;;;5.97;;
2868;SDS011;1442;47.448;8.582;2023-02-28T02:54:26;8.70;;;5.25;;
2868;SDS011;1442;47.448;8.582;2023-02-28T02:56:54;8.77;;;5.47;;
2868;SDS011;1442;47.448;8.582;2023-02-28T02:59:23;8.68;;;5.70;;
2868;SDS011;1442;47.448;8.582;2023-02-28T03:01:51;9.48;;;5.72;;
2868;SDS011;1442;47.448;8.582;2023-02-28T03:04:20;9.95;;;5.68;;
2868;SDS011;1442;47.448;8.582;2023-02-28T03:06:51;7.88;;;5.70;;
2868;SDS011;1442;47.448;8.582;2023-02-28T03:09:19;7.07;;;4.88;;
2868;SDS011;1442;47.448;8.582;2023-02-28T03:11:47;12.23;;;6.20;;
2868;SDS011;1442;47.448;8.582;2023-02-28T03:17:03;8.90;;;5.10;;
2868;SDS011;1442;47.448;8.582;2023-02-28T03:19:45;7.97;;;4.90;;
2868;SDS011;1442;47.448;8.582;2023-02-28T03:22:19;7.47;;;5.47;;
2868;SDS011;1442;47.448;8.582;2023-02-28T03:24:53;7.30;;;5.53;;
2868;SDS011;1442;47.448;8.582;2023-02-28T03:27:23;8.80;;;5.57;;
2868;SDS011;1442;47.448;8.582;2023-02-28T03:29:51;8.60;;;5.35;;
2868;SDS011;1442;47.448;8.582;2023-02-28T03:32:21;7.82;;;5.28;;
2868;SDS011;1442;47.448;8.582;2023-02-28T03:34:51;11.48;;;5.20;;
2868;SDS011;1442;47.448;8.582;2023-02-28T03:37:23;8.77;;;5.50;;
2868;SDS011;1442;47.448;8.582;2023-02-28T03:39:51;9.88;;;5.47;;
2868;SDS011;1442;47.448;8.582;2023-02-28T03:42:20;10.68;;;5.13;;
2868;SDS011;1442;47.448;8.582;2023-02-28T03:44:49;7.97;;;5.55;;
2868;SDS011;1442;47.448;8.582;2023-02-28T03:47:19;8.95;;;5.47;;
2868;SDS011;1442;47.448;8.582;2023-02-28T03:49:49;7.88;;;5.43;;
2868;SDS011;1442;47.448;8.582;2023-02-28T03:52:17;9.90;;;5.70;;
2868;SDS011;1442;47.448;8.582;2023-02-28T03:54:47;6.57;;;4.93;;
2868;SDS011;1442;47.448;8.582;2023-02-28T03:57:17;9.82;;;5.28;;
2868;SDS011;1442;47.448;8.582;2023-02-28T03:59:46;5.55;;;4.70;;
2868;SDS011;1442;47.448;8.582;2023-02-28T04:02:14;6.28;;;4.53;;
2868;SDS011;1442;47.448;8.582;2023-02-28T04:04:41;6.47;;;4.95;;
2868;SDS011;1442;47.448;8.582;2023-02-28T04:07:13;7.70;;;5.10;;
2868;SDS011;1442;47.448;8.582;2023-02-28T04:09:41;8.75;;;5.45;;
2868;SDS011;1442;47.448;8.582;2023-02-28T04:12:09;6.68;;;4.60;;
2868;SDS011;1442;47.448;8.582;2023-02-28T04:14:37;8.98;;;4.80;;
2868;SDS011;1442;47.448;8.582;2023-02-28T04:17:04;7.35;;;5.05;;
2868;SDS011;1442;47.448;8.582;2023-02-28T04:19:31;8.18;;;5.72;;
2868;SDS011;1442;47.448;8.582;2023-02-28T04:21:58;6.93;;;5.25;;
2868;SDS011;1442;47.448;8.582;2023-02-28T04:24:26;8.13;;;4.90;;
2868;SDS011;1442;47.448;8.582;2023-02-28T04:26:54;8.43;;;6.20;;
2868;SDS011;1442;47.448;8.582;2023-02-28T04:29:23;5.75;;;4.93;;
2868;SDS011;1442;47.448;8.582;2023-02-28T04:31:51;8.63;;;4.70;;
2868;SDS011;1442;47.448;8.582;2023-02-28T04:34:19;8.00;;;5.30;;
2868;SDS011;1442;47.448;8.582;2023-02-28T04:36:46;6.55;;;4.90;;
2868;SDS011;1442;47.448;8.582;2023-02-28T04:39:15;8.45;;;5.38;;
2868;SDS011;1442;47.448;8.582;2023-02-28T04:41:43;11.88;;;5.80;;
2868;SDS011;1442;47.448;8.582;2023-02-28T04:44:10;8.10;;;5.47;;
2868;SDS011;1442;47.448;8.582;2023-02-28T04:46:39;6.55;;;5.10;;
2868;SDS011;1442;47.448;8.582;2023-02-28T04:49:06;8.45;;;4.93;;
2868;SDS011;1442;47.448;8.582;2023-02-28T04:51:34;6.65;;;5.07;;
2868;SDS011;1442;47.448;8.582;2023-02-28T04:54:01;7.45;;;5.18;;
2868;SDS011;1442;47.448;8.582;2023-02-28T04:56:29;7.75;;;4.75;;
2868;SDS011;1442;47.448;8.582;2023-02-28T04:58:56;7.90;;;4.97;;
2868;SDS011;1442;47.448;8.582;2023-02-28T05:01:24;6.70;;;4.70;;
2868;SDS011;1442;47.448;8.582;2023-02-28T05:03:53;8.40;;;4.80;;
2868;SDS011;1442;47.448;8.582;2023-02-28T05:06:21;10.68;;;4.97;;
2868;SDS011;1442;47.448;8.582;2023-02-28T05:08:49;8.82;;;4.90;;
2868;SDS011;1442;47.448;8.582;2023-02-28T05:11:18;7.70;;;4.70;;
2868;SDS011;1442;47.448;8.582;2023-02-28T05:13:45;6.97;;;4.95;;
2868;SDS011;1442;47.448;8.582;2023-02-28T05:16:12;9.20;;;5.03;;
2868;SDS011;1442;47.448;8.582;2023-02-28T05:18:40;7.53;;;4.82;;
2868;SDS011;1442;47.448;8.582;2023-02-28T05:21:14;7.45;;;4.95;;
2868;SDS011;1442;47.448;8.582;2023-02-28T05:23:48;6.80;;;4.75;;
2868;SDS011;1442;47.448;8.582;2023-02-28T05:26:15;5.25;;;4.35;;
2868;SDS011;1442;47.448;8.582;2023-02-28T05:28:43;7.70;;;5.00;;
2868;SDS011;1442;47.448;8.582;2023-02-28T05:31:10;7.55;;;4.57;;
2868;SDS011;1442;47.448;8.582;2023-02-28T05:33:37;9.15;;;5.20;;
2868;SDS011;1442;47.448;8.582;2023-02-28T05:36:05;8.18;;;4.57;;
2868;SDS011;1442;47.448;8.582;2023-02-28T05:38:33;7.22;;;5.10;;
2868;SDS011;1442;47.448;8.582;2023-02-28T05:41:04;6.35;;;4.65;;
2868;SDS011;1442;47.448;8.582;2023-02-28T05:43:31;8.88;;;5.32;;
2868;SDS011;1442;47.448;8.582;2023-02-28T05:45:58;7.53;;;4.22;;
2868;SDS011;1442;47.448;8.582;2023-02-28T05:48:25;6.28;;;4.63;;
2868;SDS011;1442;47.448;8.582;2023-02-28T05:50:52;8.70;;;4.95;;
2868;SDS011;1442;47.448;8.582;2023-02-28T05:53:20;6.03;;;4.82;;
2868;SDS011;1442;47.448;8.582;2023-02-28T05:55:49;6.05;;;4.45;;
2868;SDS011;1442;47.448;8.582;2023-02-28T05:58:16;8.88;;;5.22;;
2868;SDS011;1442;47.448;8.582;2023-02-28T06:00:43;9.18;;;5.00;;
2868;SDS011;1442;47.448;8.582;2023-02-28T06:03:11;6.28;;;4.72;;
2868;SDS011;1442;47.448;8.582;2023-02-28T06:05:38;8.30;;;4.75;;
2868;SDS011;1442;47.448;8.582;2023-02-28T06:08:05;8.27;;;5.47;;
2868;SDS011;1442;47.448;8.582;2023-02-28T06:10:33;9.52;;;5.60;;
2868;SDS011;1442;47.448;8.582;2023-02-28T06:13:02;9.45;;;5.35;;
2868;SDS011;1442;47.448;8.582;2023-02-28T06:15:29;10.65;;;5.10;;
2868;SDS011;1442;47.448;8.582;2023-02-28T06:17:57;7.30;;;4.68;;
2868;SDS011;1442;47.448;8.582;2023-02-28T06:20:25;11.18;;;5.43;;
2868;SDS011;1442;47.448;8.582;2023-02-28T06:22:54;7.43;;;5.13;;
2868;SDS011;1442;47.448;8.582;2023-02-28T06:25:23;7.97;;;5.15;;
2868;SDS011;1442;47.448;8.582;2023-02-28T06:27:50;8.35;;;5.13;;
2868;SDS011;1442;47.448;8.582;2023-02-28T06:30:19;7.03;;;4.82;;
2868;SDS011;1442;47.448;8.582;2023-02-28T06:32:49;7.95;;;5.07;;
2868;SDS011;1442;47.448;8.582;2023-02-28T06:35:16;8.60;;;5.25;;
2868;SDS011;1442;47.448;8.582;2023-02-28T06:37:44;6.28;;;5.10;;
2868;SDS011;1442;47.448;8.582;2023-02-28T06:40:12;6.30;;;4.95;;
2868;SDS011;1442;47.448;8.582;2023-02-28T06:42:39;10.38;;;5.00;;
2868;SDS011;1442;47.448;8.582;2023-02-28T06:45:07;9.30;;;5.32;;
2868;SDS011;1442;47.448;8.582;2023-02-28T06:47:36;11.45;;;5.30;;
2868;SDS011;1442;47.448;8.582;2023-02-28T06:50:04;13.93;;;6.03;;
2868;SDS011;1442;47.448;8.582;2023-02-28T06:52:31;6.75;;;5.05;;
2868;SDS011;1442;47.448;8.582;2023-02-28T06:55:01;6.55;;;4.93;;
2868;SDS011;1442;47.448;8.582;2023-02-28T06:57:28;11.65;;;5.45;;
2868;SDS011;1442;47.448;8.582;2023-02-28T06:59:57;8.45;;;5.38;;
2868;SDS011;1442;47.448;8.582;2023-02-28T07:02:24;9.93;;;6.35;;
2868;SDS011;1442;47.448;8.582;2023-02-28T07:04:53;7.60;;;5.47;;
2868;SDS011;1442;47.448;8.582;2023-02-28T07:07:20;6.38;;;4.95;;
2868;SDS011;1442;47.448;8.582;2023-02-28T07:09:47;7.97;;;5.68;;
2868;SDS011;1442;47.448;8.582;2023-02-28T07:12:15;7.22;;;5.40;;
2868;SDS011;1442;47.448;8.582;2023-02-28T07:14:42;8.73;;;5.25;;
2868;SDS011;1442;47.448;8.582;2023-02-28T07:17:09;10.05;;;5.88;;
2868;SDS011;1442;47.448;8.582;2023-02-28T07:19:37;9.95;;;6.00;;
2868;SDS011;1442;47.448;8.582;2023-02-28T07:22:06;10.98;;;5.70;;
2868;SDS011;1442;47.448;8.582;2023-02-28T07:24:33;10.82;;;5.65;;
2868;SDS011;1442;47.448;8.582;2023-02-28T07:27:00;8.30;;;5.50;;
2868;SDS011;1442;47.448;8.582;2023-02-28T07:29:28;8.60;;;5.25;;
2868;SDS011;1442;47.448;8.582;2023-02-28T07:31:55;8.80;;;5.50;;
2868;SDS011;1442;47.448;8.582;2023-02-28T07:34:22;8.50;;;5.13;;
2868;SDS011;1442;47.448;8.582;2023-02-28T07:36:52;9.60;;;5.47;;
2868;SDS011;1442;47.448;8.582;2023-02-28T07:39:20;13.07;;;6.13;;
2868;SDS011;1442;47.448;8.582;2023-02-28T07:41:48;10.52;;;5.53;;
2868;SDS011;1442;47.448;8.582;2023-02-28T07:44:15;8.40;;;5.70;;
2868;SDS011;1442;47.448;8.582;2023-02-28T07:46:42;9.50;;;6.30;;
2868;SDS011;1442;47.448;8.582;2023-02-28T07:49:09;7.13;;;5.28;;
2868;SDS011;1442;47.448;8.582;2023-02-28T07:51:36;9.65;;;5.50;;
2868;SDS011;1442;47.448;8.582;2023-02-28T07:54:04;10.43;;;6.38;;
2868;SDS011;1442;47.448;8.582;2023-02-28T07:56:32;8.38;;;5.72;;
2868;SDS011;1442;47.448;8.582;2023-02-28T07:58:59;8.27;;;6.22;;
2868;SDS011;1442;47.448;8.582;2023-02-28T08:01:27;10.90;;;5.88;;
2868;SDS011;1442;47.448;8.582;2023-02-28T08:03:54;9.63;;;6.38;;
2868;SDS011;1442;47.448;8.582;2023-02-28T08:06:23;13.70;;;6.30;;
2868;SDS011;1442;47.448;8.582;2023-02-28T08:08:50;10.43;;;6.07;;
2868;SDS011;1442;47.448;8.582;2023-02-28T08:11:17;9.85;;;6.05;;
2868;SDS011;1442;47.448;8.582;2023-02-28T08:13:46;10.85;;;6.72;;
2868;SDS011;1442;47.448;8.582;2023-02-28T08:16:13;12.32;;;5.95;;
2868;SDS011;1442;47.448;8.582;2023-02-28T08:18:46;10.20;;;6.40;;
2868;SDS011;1442;47.448;8.582;2023-02-28T08:21:13;9.73;;;6.28;;
2868;SDS011;1442;47.448;8.582;2023-02-28T08:23:40;9.60;;;5.75;;
2868;SDS011;1442;47.448;8.582;2023-02-28T08:26:07;7.80;;;5.85;;
2868;SDS011;1442;47.448;8.582;2023-02-28T08:28:34;11.65;;;6.38;;
2868;SDS011;1442;47.448;8.582;2023-02-28T08:31:07;9.73;;;5.90;;
2868;SDS011;1442;47.448;8.582;2023-02-28T08:33:35;10.82;;;6.10;;
2868;SDS011;1442;47.448;8.582;2023-02-28T08:36:04;11.68;;;6.20;;
2868;SDS011;1442;47.448;8.582;2023-02-28T08:38:31;11.43;;;6.68;;
2868;SDS011;1442;47.448;8.582;2023-02-28T08:40:59;10.90;;;6.57;;
2868;SDS011;1442;47.448;8.582;2023-02-28T08:43:26;10.70;;;6.25;;
2868;SDS011;1442;47.448;8.582;2023-02-28T08:45:53;12.82;;;6.70;;
2868;SDS011;1442;47.448;8.582;2023-02-28T08:48:23;11.60;;;6.50;;
2868;SDS011;1442;47.448;8.582;2023-02-28T08:50:56;12.23;;;5.82;;
2868;SDS011;1442;47.448;8.582;2023-02-28T08:53:23;10.15;;;6.05;;
2868;SDS011;1442;47.448;8.582;2023-02-28T08:55:57;9.80;;;7.05;;
2868;SDS011;1442;47.448;8.582;2023-02-28T08:58:25;7.90;;;5.72;;
2868;SDS011;1442;47.448;8.582;2023-02-28T09:00:52;9.25;;;6.20;;
2868;SDS011;1442;47.448;8.582;2023-02-28T09:03:20;11.65;;;7.47;;
2868;SDS011;1442;47.448;8.582;2023-02-28T09:05:55;9.55;;;6.40;;
2868;SDS011;1442;47.448;8.582;2023-02-28T09:08:23;12.55;;;6.72;;
2868;SDS011;1442;47.448;8.582;2023-02-28T09:10:50;10.30;;;7.20;;
2868;SDS011;1442;47.448;8.582;2023-02-28T09:13:18;15.27;;;6.50;;
2868;SDS011;1442;47.448;8.582;2023-02-28T09:15:45;9.02;;;6.43;;
2868;SDS011;1442;47.448;8.582;2023-02-28T09:18:13;10.65;;;6.50;;
2868;SDS011;1442;47.448;8.582;2023-02-28T09:20:40;11.00;;;7.13;;
2868;SDS011;1442;47.448;8.582;2023-02-28T09:23:10;12.90;;;6.90;;
2868;SDS011;1442;47.448;8.582;2023-02-28T09:25:38;11.02;;;6.63;;
2868;SDS011;1442;47.448;8.582;2023-02-28T09:28:05;9.02;;;6.55;;
2868;SDS011;1442;47.448;8.582;2023-02-28T09:30:32;11.02;;;6.90;;
2868;SDS011;1442;47.448;8.582;2023-02-28T09:33:00;12.18;;;6.93;;
2868;SDS011;1442;47.448;8.582;2023-02-28T09:35:28;11.32;;;7.18;;
2868;SDS011;1442;47.448;8.582;2023-02-28T09:37:56;10.52;;;6.57;;
2868;SDS011;1442;47.448;8.582;2023-02-28T09:40:26;10.73;;;6.55;;
2868;SDS011;1442;47.448;8.582;2023-02-28T09:42:54;13.82;;;7.13;;
2868;SDS011;1442;47.448;8.582;2023-02-28T09:45:22;13.00;;;6.10;;
2868;SDS011;1442;47.448;8.582;2023-02-28T09:47:51;12.80;;;7.28;;
2868;SDS011;1442;47.448;8.582;2023-02-28T09:50:21;12.15;;;6.60;;
2868;SDS011;1442;47.448;8.582;2023-02-28T09:52:50;8.50;;;6.20;;
2868;SDS011;1442;47.448;8.582;2023-02-28T09:55:19;11.18;;;6.82;;
2868;SDS011;1442;47.448;8.582;2023-02-28T09:57:48;12.75;;;7.43;;
2868;SDS011;1442;47.448;8.582;2023-02-28T10:00:18;13.82;;;6.82;;
2868;SDS011;1442;47.448;8.582;2023-02-28T10:02:54;11.82;;;6.68;;
2868;SDS011;1442;47.448;8.582;2023-02-28T10:05:24;11.55;;;7.30;;
2868;SDS011;1442;47.448;8.582;2023-02-28T10:07:59;11.75;;;7.35;;
2868;SDS011;1442;47.448;8.582;2023-02-28T10:10:32;10.18;;;6.47;;
2868;SDS011;1442;47.448;8.582;2023-02-28T10:13:01;11.60;;;6.95;;
2868;SDS011;1442;47.448;8.582;2023-02-28T10:15:30;13.02;;;7.35;;
2868;SDS011;1442;47.448;8.582;2023-02-28T10:17:58;9.25;;;6.30;;
2868;SDS011;1442;47.448;8.582;2023-02-28T10:20:27;11.32;;;6.45;;
2868;SDS011;1442;47.448;8.582;2023-02-28T10:23:01;12.95;;;6.93;;
2868;SDS011;1442;47.448;8.582;2023-02-28T10:25:32;9.32;;;6.45;;
2868;SDS011;1442;47.448;8.582;2023-02-28T10:28:08;11.85;;;6.90;;
2868;SDS011;1442;47.448;8.582;2023-02-28T10:30:36;12.30;;;7.85;;
2868;SDS011;1442;47.448;8.582;2023-02-28T10:33:08;9.75;;;6.55;;
2868;SDS011;1442;47.448;8.582;2023-02-28T10:35:38;11.23;;;6.68;;
2868;SDS011;1442;47.448;8.582;2023-02-28T10:38:08;11.30;;;7.13;;
2868;SDS011;1442;47.448;8.582;2023-02-28T10:40:38;10.75;;;6.70;;
2868;SDS011;1442;47.448;8.582;2023-02-28T10:43:18;10.48;;;7.05;;
2868;SDS011;1442;47.448;8.582;2023-02-28T10:45:54;9.68;;;7.05;;
2868;SDS011;1442;47.448;8.582;2023-02-28T10:48:35;10.30;;;6.50;;
2868;SDS011;1442;47.448;8.582;2023-02-28T10:51:04;11.40;;;7.43;;
2868;SDS011;1442;47.448;8.582;2023-02-28T10:53:32;11.82;;;6.80;;
2868;SDS011;1442;47.448;8.582;2023-02-28T10:56:00;14.02;;;7.25;;
2868;SDS011;1442;47.448;8.582;2023-02-28T10:58:30;10.35;;;7.32;;
2868;SDS011;1442;47.448;8.582;2023-02-28T11:00:58;11.63;;;6.82;;
2868;SDS011;1442;47.448;8.582;2023-02-28T11:03:30;11.93;;;7.25;;
2868;SDS011;1442;47.448;8.582;2023-02-28T11:05:58;13.57;;;7.53;;
2868;SDS011;1442;47.448;8.582;2023-02-28T11:08:25;12.57;;;7.53;;
2868;SDS011;1442;47.448;8.582;2023-02-28T11:10:56;11.95;;;7.53;;
2868;SDS011;1442;47.448;8.582;2023-02-28T11:13:28;12.23;;;7.30;;
2868;SDS011;1442;47.448;8.582;2023-02-28T11:15:57;13.10;;;7.28;;
2868;SDS011;1442;47.448;8.582;2023-02-28T11:18:27;11.65;;;6.90;;
2868;SDS011;1442;47.448;8.582;2023-02-28T11:20:56;13.43;;;7.88;;
2868;SDS011;1442;47.448;8.582;2023-02-28T11:23:24;11.18;;;7.28;;
2868;SDS011;1442;47.448;8.582;2023-02-28T11:25:53;14.57;;;7.57;;
2868;SDS011;1442;47.448;8.582;2023-02-28T11:28:25;12.82;;;6.90;;
2868;SDS011;1442;47.448;8.582;2023-02-28T11:31:01;10.60;;;7.18;;
2868;SDS011;1442;47.448;8.582;2023-02-28T11:33:29;10.45;;;7.00;;
2868;SDS011;1442;47.448;8.582;2023-02-28T11:35:58;10.77;;;7.72;;
2868;SDS011;1442;47.448;8.582;2023-02-28T11:38:26;12.02;;;7.57;;
2868;SDS011;1442;47.448;8.582;2023-02-28T11:40:58;10.57;;;7.15;;
2868;SDS011;1442;47.448;8.582;2023-02-28T11:43:30;11.70;;;7.50;;
2868;SDS011;1442;47.448;8.582;2023-02-28T11:46:13;12.38;;;7.75;;
2868;SDS011;1442;47.448;8.582;2023-02-28T11:48:48;11.30;;;7.57;;
2868;SDS011;1442;47.448;8.582;2023-02-28T11:51:21;11.40;;;6.80;;
2868;SDS011;1442;47.448;8.582;2023-02-28T11:53:50;12.25;;;6.90;;
2868;SDS011;1442;47.448;8.582;2023-02-28T11:56:21;11.68;;;7.45;;
2868;SDS011;1442;47.448;8.582;2023-02-28T11:58:52;13.25;;;7.07;;
2868;SDS011;1442;47.448;8.582;2023-02-28T12:01:26;11.40;;;7.63;;
2868;SDS011;1442;47.448;8.582;2023-02-28T12:03:58;12.05;;;7.20;;
2868;SDS011;1442;47.448;8.582;2023-02-28T12:06:28;9.40;;;6.95;;
2868;SDS011;1442;47.448;8.582;2023-02-28T12:09:02;10.80;;;7.43;;
2868;SDS011;1442;47.448;8.582;2023-02-28T12:11:38;10.70;;;7.18;;
2868;SDS011;1442;47.448;8.582;2023-02-28T12:14:14;11.10;;;7.18;;
2868;SDS011;1442;47.448;8.582;2023-02-28T12:16:52;12.32;;;6.85;;
2868;SDS011;1442;47.448;8.582;2023-02-28T12:19:23;11.85;;;7.45;;
2868;SDS011;1442;47.448;8.582;2023-02-28T12:22:04;11.52;;;7.78;;
2868;SDS011;1442;47.448;8.582;2023-02-28T12:24:44;10.80;;;7.45;;
2868;SDS011;1442;47.448;8.582;2023-02-28T12:27:15;10.63;;;7.50;;
2868;SDS011;1442;47.448;8.582;2023-02-28T12:29:46;11.85;;;7.50;;
2868;SDS011;1442;47.448;8.582;2023-02-28T12:32:16;11.27;;;7.85;;
2868;SDS011;1442;47.448;8.582;2023-02-28T12:34:44;11.35;;;7.90;;
2868;SDS011;1442;47.448;8.582;2023-02-28T12:37:14;14.70;;;7.80;;
2868;SDS011;1442;47.448;8.582;2023-02-28T12:39:44;11.52;;;7.38;;
2868;SDS011;1442;47.448;8.582;2023-02-28T12:42:13;11.50;;;7.63;;
2868;SDS011;1442;47.448;8.582;2023-02-28T12:44:43;13.23;;;7.43;;
2868;SDS011;1442;47.448;8.582;2023-02-28T12:47:12;15.75;;;7.50;;
2868;SDS011;1442;47.448;8.582;2023-02-28T12:49:42;13.93;;;7.85;;
2868;SDS011;1442;47.448;8.582;2023-02-28T12:52:12;13.30;;;7.32;;
2868;SDS011;1442;47.448;8.582;2023-02-28T12:54:43;13.23;;;7.45;;
2868;SDS011;1442;47.448;8.582;2023-02-28T12:57:12;12.18;;;7.47;;
2868;SDS011;1442;47.448;8.582;2023-02-28T12:59:41;9.05;;;7.25;;
2868;SDS011;1442;47.448;8.582;2023-02-28T13:02:21;14.15;;;8.15;;
2868;SDS011;1442;47.448;8.582;2023-02-28T13:05:01;13.80;;;7.45;;
2868;SDS011;1442;47.448;8.582;2023-02-28T13:07:41;10.70;;;7.70;;
2868;SDS011;1442;47.448;8.582;2023-02-28T13:10:11;12.65;;;7.45;;
2868;SDS011;1442;47.448;8.582;2023-02-28T13:12:46;13.60;;;8.52;;
2868;SDS011;1442;47.448;8.582;2023-02-28T13:15:16;12.65;;;7.43;;
2868;SDS011;1442;47.448;8.582;2023-02-28T13:17:47;14.98;;;8.27;;
2868;SDS011;1442;47.448;8.582;2023-02-28T13:20:17;12.85;;;8.95;;
2868;SDS011;1442;47.448;8.582;2023-02-28T13:22:45;12.45;;;7.65;;
2868;SDS011;1442;47.448;8.582;2023-02-28T13:28:08;13.10;;;8.35;;
2868;SDS011;1442;47.448;8.582;2023-02-28T13:31:00;16.02;;;9.07;;
2868;SDS011;1442;47.448;8.582;2023-02-28T13:33:27;14.38;;;8.38;;
2868;SDS011;1442;47.448;8.582;2023-02-28T13:36:10;14.27;;;7.78;;
2868;SDS011;1442;47.448;8.582;2023-02-28T13:38:40;11.50;;;7.47;;
2868;SDS011;1442;47.448;8.582;2023-02-28T13:44:02;20.05;;;7.93;;
2868;SDS011;1442;47.448;8.582;2023-02-28T13:46:30;19.80;;;9.15;;
2868;SDS011;1442;47.448;8.582;2023-02-28T13:51:41;14.20;;;8.00;;
2868;SDS011;1442;47.448;8.582;2023-02-28T13:54:15;14.77;;;7.93;;
2868;SDS011;1442;47.448;8.582;2023-02-28T13:56:45;13.60;;;7.80;;
2868;SDS011;1442;47.448;8.582;2023-02-28T13:59:17;14.77;;;8.25;;
2868;SDS011;1442;47.448;8.582;2023-02-28T14:01:50;18.17;;;8.75;;
2868;SDS011;1442;47.448;8.582;2023-02-28T14:04:35;11.43;;;7.50;;
2868;SDS011;1442;47.448;8.582;2023-02-28T14:07:07;12.85;;;8.25;;
2868;SDS011;1442;47.448;8.582;2023-02-28T14:09:37;19.13;;;8.73;;
2868;SDS011;1442;47.448;8.582;2023-02-28T14:14:54;16.13;;;8.93;;
2868;SDS011;1442;47.448;8.582;2023-02-28T14:17:22;12.18;;;8.10;;
2868;SDS011;1442;47.448;8.582;2023-02-28T14:19:51;17.58;;;9.93;;
2868;SDS011;1442;47.448;8.582;2023-02-28T14:22:32;16.90;;;9.10;;
2868;SDS011;1442;47.448;8.582;2023-02-28T14:25:08;14.60;;;9.30;;
2868;SDS011;1442;47.448;8.582;2023-02-28T14:27:37;14.90;;;9.10;;
2868;SDS011;1442;47.448;8.582;2023-02-28T14:30:12;13.20;;;8.43;;
2868;SDS011;1442;47.448;8.582;2023-02-28T14:32:44;17.00;;;8.85;;
2868;SDS011;1442;47.448;8.582;2023-02-28T14:35:16;16.05;;;9.23;;
2868;SDS011;1442;47.448;8.582;2023-02-28T14:37:46;13.80;;;9.43;;
2868;SDS011;1442;47.448;8.582;2023-02-28T14:40:14;14.43;;;9.07;;
2868;SDS011;1442;47.448;8.582;2023-02-28T14:42:46;17.35;;;9.15;;
2868;SDS011;1442;47.448;8.582;2023-02-28T14:45:17;19.05;;;10.18;;
2868;SDS011;1442;47.448;8.582;2023-02-28T14:47:45;15.13;;;9.93;;
2868;SDS011;1442;47.448;8.582;2023-02-28T14:50:17;15.45;;;9.38;;
2868;SDS011;1442;47.448;8.582;2023-02-28T14:52:46;15.27;;;9.18;;
2868;SDS011;1442;47.448;8.582;2023-02-28T14:55:16;16.55;;;9.73;;
2868;SDS011;1442;47.448;8.582;2023-02-28T14:57:50;17.30;;;9.45;;
2868;SDS011;1442;47.448;8.582;2023-02-28T15:00:20;19.17;;;10.82;;
2868;SDS011;1442;47.448;8.582;2023-02-28T15:02:48;16.40;;;10.25;;
2868;SDS011;1442;47.448;8.582;2023-02-28T15:05:20;17.73;;;10.20;;
2868;SDS011;1442;47.448;8.582;2023-02-28T15:08:00;16.63;;;9.93;;
2868;SDS011;1442;47.448;8.582;2023-02-28T15:10:27;16.23;;;9.73;;
2868;SDS011;1442;47.448;8.582;2023-02-28T15:12:56;18.42;;;10.82;;
2868;SDS011;1442;47.448;8.582;2023-02-28T15:15:23;13.80;;;10.10;;
2868;SDS011;1442;47.448;8.582;2023-02-28T15:17:52;20.85;;;9.90;;
2868;SDS011;1442;47.448;8.582;2023-02-28T15:20:20;19.98;;;10.50;;
2868;SDS011;1442;47.448;8.582;2023-02-28T15:22:50;20.23;;;10.30;;
2868;SDS011;1442;47.448;8.582;2023-02-28T15:25:18;21.20;;;10.93;;
2868;SDS011;1442;47.448;8.582;2023-02-28T15:27:47;15.32;;;9.70;;
2868;SDS011;1442;47.448;8.582;2023-02-28T15:30:16;16.63;;;10.07;;
2868;SDS011;1442;47.448;8.582;2023-02-28T15:32:43;17.70;;;10.30;;
2868;SDS011;1442;47.448;8.582;2023-02-28T15:35:19;15.90;;;10.23;;